Create Tblcommutelog Verified Points Advance Search
| # | Trip ID | Id Commuter | Trip Date | Trip Num | Current Lat | Current Lng | Delta Distance | Current Time | Activity | Activity Confidence | Current Speed | |
|---|---|---|---|---|---|---|---|---|---|---|---|---|
| 73481 | 251014_787968_16656505_1552 | 787968 | (not set) | (not set) | 38.86561813013 | -77.32726859882 | 29.0214 | 2025-10-14 16:24:14 | in_vehicle | 100 | 12.047708029719 | |
| 73482 | 251014_787783_0_1619 | 787783 | (not set) | (not set) | 38.90131646056 | -77.046572595467 | 0 | 2025-10-14 16:24:14 | still | 33 | 0.16540452582546 | |
| 73483 | 251014_787783_0_1619 | 787783 | (not set) | (not set) | 38.90131646056 | -77.046572595467 | 0.1527 | 2025-10-14 16:24:14 | still | 33 | 0.16540452582546 | |
| 73484 | 251014_787783_0_1619 | 787783 | (not set) | (not set) | 38.90131646056 | -77.046572595467 | 0.1527 | 2025-10-14 16:24:14 | still | 33 | 0.16540452582546 | |
| 73485 | 251014_787783_0_1619 | 787783 | (not set) | (not set) | 38.90131646056 | -77.046572595467 | 0.1527 | 2025-10-14 16:24:14 | still | 33 | 0.16540452582546 | |
| 73486 | 251014_787783_0_1619 | 787783 | (not set) | (not set) | 38.90131646056 | -77.046572595467 | 0.1527 | 2025-10-14 16:24:14 | still | 33 | 0.16540452582546 | |
| 73487 | 251014_787783_0_1619 | 787783 | (not set) | (not set) | 38.90131646056 | -77.046572595467 | 0.1527 | 2025-10-14 16:24:14 | still | 33 | 0.16540452582546 | |
| 73488 | 251014_789014_16657774_1404 | 789014 | (not set) | (not set) | 38.347862901222 | -77.431674223023 | 49.8047 | 2025-10-14 16:24:14 | in_vehicle | 100 | 10.652945541677 | |
| 73489 | 251014_786113_16654392_1553 | 786113 | (not set) | (not set) | 38.865581367418 | -77.327598564378 | 28.9238 | 2025-10-14 16:24:15 | in_vehicle | 100 | 12.172879022236 | |
| 73490 | 251014_698742_16655895_1614 | 698742 | (not set) | (not set) | 38.865699609645 | -77.046309933245 | 2.1036 | 2025-10-14 16:24:16 | in_vehicle | 100 | 7.3895589510671 | |
| 73491 | 251014_698742_16655895_1614 | 698742 | (not set) | (not set) | 38.865699609645 | -77.046309933245 | 2.1036 | 2025-10-14 16:24:16 | in_vehicle | 100 | 7.3895589510671 | |
| 73492 | 251014_765311_16652720_1620 | 765311 | (not set) | (not set) | 39.299086090101 | -76.594099227319 | 0.137 | 2025-10-14 16:24:16 | on_foot | 100 | 0.57221025150429 | |
| 73493 | 251014_784692_16658002_1554 | 784692 | (not set) | (not set) | 38.865475141948 | -77.328228738077 | 29.0031 | 2025-10-14 16:24:17 | in_vehicle | 100 | 12.320401977702 | |
| 73494 | 251014_788116_16656678_1601 | 788116 | (not set) | (not set) | 38.863812772143 | -77.220072609116 | 21.7928 | 2025-10-14 16:24:17 | unknown | 100 | 14.139851761782 | |
| 73495 | 251014_788116_16656678_1601 | 788116 | (not set) | (not set) | 38.863812772143 | -77.220072609116 | 21.7928 | 2025-10-14 16:24:17 | unknown | 100 | 14.139851761782 | |
| 73496 | 251014_786937_16657243_1610 | 786937 | (not set) | (not set) | 39.39656363074 | -76.763362971717 | 7.3757 | 2025-10-14 16:24:17 | unknown | 100 | 13.648108576895 | |
| 73497 | 251014_788077_16656633_1601 | 788077 | (not set) | (not set) | 38.86542725194 | -77.328548806807 | 25.9503 | 2025-10-14 16:24:18 | unknown | 100 | 12.557332784965 | |
| 73498 | 251014_753546_16656836_1618 | 753546 | (not set) | (not set) | 38.8254656 | -77.301224283333 | 1.8371 | 2025-10-14 16:24:18 | in_vehicle | 100 | 4.0457052938389 | |
| 73499 | 251014_753546_16656836_1619 | 753546 | (not set) | (not set) | 38.8254656 | -77.301224283333 | 1.8371 | 2025-10-14 16:24:18 | in_vehicle | 100 | 4.0457052938389 | |
| 73500 | 251014_789556_16658438_1553 | 789556 | (not set) | (not set) | 39.267486942084 | -76.663553862802 | 5.0432 | 2025-10-14 16:24:20 | in_vehicle | 100 | 9.4638211127701 |